createdAt,value
2018-03-23T00:01:10.564Z,30.67
2018-03-23T00:03:38.065Z,30.93
2018-03-23T00:06:05.567Z,29.07
2018-03-23T00:08:33.055Z,30.67
2018-03-23T00:11:01.342Z,31.63
2018-03-23T00:13:29.597Z,29.43
2018-03-23T00:15:57.118Z,26.90
2018-03-23T00:18:24.615Z,29.13
2018-03-23T00:20:52.373Z,30.10
2018-03-23T00:23:19.854Z,27.60
2018-03-23T00:25:48.216Z,27.93
2018-03-23T00:28:15.699Z,27.10
2018-03-23T00:30:43.935Z,25.53
2018-03-23T00:33:11.427Z,25.10
2018-03-23T00:35:39.719Z,26.70
2018-03-23T00:38:07.983Z,29.90
2018-03-23T00:40:36.325Z,28.23
2018-03-23T00:43:03.819Z,26.37
2018-03-23T00:45:32.171Z,27.77
2018-03-23T00:47:59.671Z,27.87
2018-03-23T00:50:27.935Z,28.47
2018-03-23T00:52:56.227Z,27.90
2018-03-23T00:55:23.755Z,27.13
2018-03-23T00:57:51.379Z,28.43
2018-03-23T01:00:18.872Z,26.50
2018-03-23T01:02:46.373Z,27.97
2018-03-23T01:05:13.921Z,26.20
2018-03-23T01:07:41.430Z,28.27
2018-03-23T01:10:08.930Z,23.70
2018-03-23T01:12:36.455Z,27.03
2018-03-23T01:15:03.934Z,21.90
2018-03-23T01:17:31.498Z,23.77
2018-03-23T01:19:59.063Z,21.67
2018-03-23T01:22:26.555Z,22.90
2018-03-23T01:24:54.068Z,23.40
2018-03-23T01:27:22.219Z,23.87
2018-03-23T01:29:49.729Z,22.57
2018-03-23T01:32:17.240Z,22.50
2018-03-23T01:34:44.723Z,21.80
2018-03-23T01:37:12.200Z,23.90
2018-03-23T01:39:40.460Z,23.63
2018-03-23T01:42:07.953Z,22.57
2018-03-23T01:44:35.467Z,24.67
2018-03-23T01:47:04.459Z,27.07
2018-03-23T01:49:32.150Z,24.43
2018-03-23T01:52:00.430Z,25.67
2018-03-23T01:54:28.682Z,28.10
2018-03-23T01:56:56.187Z,34.73
2018-03-23T01:59:23.687Z,34.10
2018-03-23T02:01:51.199Z,35.53
2018-03-23T02:04:18.696Z,43.30
2018-03-23T02:06:46.207Z,45.60
2018-03-23T02:09:13.746Z,42.50
2018-03-23T02:11:41.231Z,44.00
2018-03-23T02:14:08.715Z,43.20
2018-03-23T02:16:36.198Z,41.07
2018-03-23T02:19:03.674Z,45.87
2018-03-23T02:21:31.184Z,39.77
2018-03-23T02:23:58.690Z,40.17
2018-03-23T02:26:26.194Z,43.50
2018-03-23T02:28:53.731Z,41.60
2018-03-23T02:31:21.216Z,39.57
2018-03-23T02:33:48.738Z,41.10
2018-03-23T02:36:16.262Z,36.47
2018-03-23T02:38:43.759Z,38.53
2018-03-23T02:41:11.268Z,36.03
2018-03-23T02:43:38.789Z,36.27
2018-03-23T02:46:07.067Z,32.87
2018-03-23T02:48:35.346Z,31.80
2018-03-23T02:51:03.738Z,32.93
2018-03-23T02:53:31.284Z,28.33
2018-03-23T02:55:59.665Z,27.43
2018-03-23T02:58:27.279Z,28.70
2018-03-23T03:00:55.543Z,26.80
2018-03-23T03:03:23.104Z,28.27
2018-03-23T03:05:50.581Z,29.13
2018-03-23T03:08:18.463Z,28.37
2018-03-23T03:10:46.172Z,28.60
2018-03-23T03:13:13.674Z,29.40
2018-03-23T03:15:41.267Z,27.20
2018-03-23T03:18:09.529Z,29.27
2018-03-23T03:20:37.011Z,26.90
2018-03-23T03:23:05.269Z,29.23
2018-03-23T03:25:32.750Z,29.20
2018-03-23T03:28:01.020Z,28.20
2018-03-23T03:30:29.501Z,27.43
2018-03-23T03:32:57.018Z,27.37
2018-03-23T03:35:25.293Z,29.97
2018-03-23T03:37:52.798Z,29.50
2018-03-23T03:40:20.302Z,28.80
2018-03-23T03:42:47.802Z,28.20
2018-03-23T03:45:15.283Z,26.73
2018-03-23T03:47:43.535Z,29.47
2018-03-23T03:50:11.020Z,26.57
2018-03-23T03:52:39.276Z,32.80
2018-03-23T03:55:07.540Z,26.80
2018-03-23T03:57:35.015Z,28.27
2018-03-23T04:00:02.543Z,31.20
2018-03-23T04:02:30.024Z,25.30
2018-03-23T04:04:57.595Z,27.57
2018-03-23T04:07:25.097Z,29.47
2018-03-23T04:09:52.655Z,29.13
2018-03-23T04:12:20.171Z,30.53
2018-03-23T04:14:47.705Z,28.73
2018-03-23T04:17:15.185Z,34.70
2018-03-23T04:19:42.712Z,32.77
2018-03-23T04:22:10.225Z,32.60
2018-03-23T04:24:38.482Z,34.27
2018-03-23T04:27:05.972Z,33.13
2018-03-23T04:29:34.220Z,32.57
2018-03-23T04:32:01.712Z,32.70
2018-03-23T04:34:29.185Z,33.63
2018-03-23T04:36:56.783Z,32.50
2018-03-23T04:39:24.262Z,31.40
2018-03-23T04:41:51.780Z,32.47
2018-03-23T04:44:19.278Z,32.53
2018-03-23T04:46:47.548Z,33.97
2018-03-23T04:49:15.271Z,35.20
2018-03-23T04:51:42.755Z,31.73
2018-03-23T04:54:10.273Z,33.63
2018-03-23T04:56:37.768Z,33.57
2018-03-23T04:59:05.272Z,33.17
2018-03-23T05:01:33.526Z,31.67
2018-03-23T05:04:01.035Z,29.83
2018-03-23T05:06:28.514Z,32.07
2018-03-23T05:08:56.047Z,29.57
2018-03-23T05:13:57.559Z,29.27
2018-03-23T05:16:25.814Z,29.10
2018-03-23T05:18:53.351Z,31.10
2018-03-23T05:21:20.854Z,26.77
2018-03-23T05:23:48.368Z,31.40
2018-03-23T05:26:15.857Z,31.50
2018-03-23T05:28:43.359Z,30.83
2018-03-23T05:31:11.652Z,30.37
2018-03-23T05:33:39.891Z,32.00
2018-03-23T05:36:07.374Z,30.10
2018-03-23T05:38:35.614Z,28.03
2018-03-23T05:41:03.116Z,29.73
2018-03-23T05:43:31.507Z,30.70
2018-03-23T05:45:58.999Z,31.27
2018-03-23T05:48:26.502Z,29.93
2018-03-23T05:50:54.054Z,28.00
2018-03-23T05:53:21.603Z,30.10
2018-03-23T05:55:49.207Z,37.40
2018-03-23T05:58:16.736Z,23.60
2018-03-23T06:00:44.271Z,29.03
2018-03-23T06:03:11.750Z,30.87
2018-03-23T06:05:39.314Z,28.80
2018-03-23T06:08:06.820Z,28.60
2018-03-23T06:10:34.486Z,28.03
2018-03-23T06:13:02.386Z,27.37
2018-03-23T06:15:29.858Z,29.10
2018-03-23T06:17:57.420Z,28.23
2018-03-23T06:20:24.923Z,29.37
2018-03-23T06:22:52.438Z,30.37
2018-03-23T06:25:19.939Z,27.13
2018-03-23T06:27:47.447Z,25.60
2018-03-23T06:30:14.933Z,26.10
2018-03-23T06:32:42.469Z,24.60
2018-03-23T06:35:09.976Z,24.10
2018-03-23T06:37:37.524Z,24.70
2018-03-23T06:40:05.805Z,23.90
2018-03-23T06:42:33.328Z,25.03
2018-03-23T06:45:00.855Z,24.20
2018-03-23T06:47:28.334Z,25.90
2018-03-23T06:49:55.845Z,22.77
2018-03-23T06:52:24.086Z,23.73
2018-03-23T06:54:51.628Z,24.40
2018-03-23T06:57:19.255Z,22.00
2018-03-23T06:59:46.767Z,23.53
2018-03-23T07:02:14.266Z,22.20
2018-03-23T07:04:42.532Z,19.50
2018-03-23T07:07:10.866Z,20.63
2018-03-23T07:09:38.454Z,23.90
2018-03-23T07:12:05.941Z,21.40
2018-03-23T07:14:33.462Z,21.00
2018-03-23T07:17:00.945Z,20.07
2018-03-23T07:19:29.197Z,19.50
2018-03-23T07:21:56.708Z,20.30
2018-03-23T07:24:24.212Z,17.50
2018-03-23T07:26:51.755Z,18.90
2018-03-23T07:29:19.465Z,18.23
2018-03-23T07:31:46.968Z,15.93
2018-03-23T07:34:14.453Z,17.37
2018-03-23T07:36:41.990Z,16.27
2018-03-23T07:39:09.471Z,15.30
2018-03-23T07:41:36.958Z,16.50
2018-03-23T07:44:05.208Z,15.23
2018-03-23T07:46:32.699Z,16.40
2018-03-23T07:49:00.952Z,18.10
2018-03-23T07:51:28.461Z,16.17
2018-03-23T07:53:55.981Z,14.50
2018-03-23T07:56:23.494Z,16.20
2018-03-23T07:58:52.006Z,15.67
2018-03-23T08:01:19.559Z,14.70
2018-03-23T08:03:47.102Z,14.77
2018-03-23T08:06:14.602Z,13.70
2018-03-23T08:08:42.107Z,13.97
2018-03-23T08:11:10.627Z,11.80
2018-03-23T08:13:38.514Z,11.00
2018-03-23T08:16:06.784Z,12.20
2018-03-23T08:18:35.100Z,11.40
2018-03-23T08:21:02.574Z,10.40
2018-03-23T08:23:30.072Z,9.33
2018-03-23T08:25:58.631Z,10.10
2018-03-23T08:28:26.337Z,8.90
2018-03-23T08:30:54.596Z,9.87
2018-03-23T08:33:22.212Z,8.83
2018-03-23T08:35:49.802Z,9.83
2018-03-23T08:38:17.413Z,10.20
2018-03-23T08:40:44.963Z,13.13
2018-03-23T08:43:13.244Z,13.43
2018-03-23T08:45:41.630Z,12.23
2018-03-23T08:48:09.899Z,11.70
2018-03-23T08:50:38.568Z,10.87
2018-03-23T08:53:06.065Z,11.33
2018-03-23T08:55:33.634Z,11.67
2018-03-23T08:58:01.166Z,12.40
2018-03-23T09:00:29.611Z,11.50
2018-03-23T09:02:57.356Z,9.53
2018-03-23T09:05:25.126Z,9.67
2018-03-23T09:07:52.622Z,9.30
2018-03-23T09:10:20.106Z,10.20
2018-03-23T09:12:47.612Z,10.20
2018-03-23T09:15:15.142Z,9.60
2018-03-23T09:17:42.964Z,10.70
2018-03-23T09:20:14.346Z,11.07
2018-03-23T09:22:43.765Z,12.70
2018-03-23T09:25:11.286Z,10.70
2018-03-23T09:27:39.679Z,10.43
2018-03-23T09:30:07.942Z,11.40
2018-03-23T09:32:35.632Z,10.50
2018-03-23T09:35:03.211Z,10.77
2018-03-23T09:37:30.899Z,10.50
2018-03-23T09:39:58.376Z,9.93
2018-03-23T09:42:27.784Z,10.80
2018-03-23T09:44:55.746Z,11.17
2018-03-23T09:47:24.248Z,11.90
2018-03-23T09:49:51.783Z,11.90
2018-03-23T09:52:19.269Z,11.97
2018-03-23T09:54:47.559Z,12.00
2018-03-23T09:57:15.277Z,10.47
2018-03-23T09:59:42.841Z,11.60
2018-03-23T10:02:10.496Z,13.47
2018-03-23T10:04:38.025Z,10.97
2018-03-23T10:07:05.519Z,12.03
2018-03-23T10:09:33.079Z,11.73
2018-03-23T10:12:00.567Z,10.90
2018-03-23T10:14:28.848Z,11.27
2018-03-23T10:16:56.376Z,11.73
2018-03-23T10:19:24.100Z,11.73
2018-03-23T10:21:51.673Z,12.80
2018-03-23T10:24:19.452Z,12.63
2018-03-23T10:26:47.088Z,11.70
2018-03-23T10:29:14.641Z,13.17
2018-03-23T10:31:42.562Z,12.80
2018-03-23T10:34:10.050Z,9.23
2018-03-23T10:36:38.298Z,10.63
2018-03-23T10:39:05.937Z,9.20
2018-03-23T10:41:33.481Z,12.33
2018-03-23T10:44:01.078Z,9.70
2018-03-23T10:46:28.699Z,9.80
2018-03-23T10:48:56.325Z,8.93
2018-03-23T10:51:23.924Z,10.90
2018-03-23T10:53:51.529Z,12.37
2018-03-23T10:56:19.096Z,10.20
2018-03-23T10:58:46.589Z,11.03
2018-03-23T11:01:19.874Z,10.30
2018-03-23T11:03:48.125Z,11.60
2018-03-23T11:06:15.636Z,10.50
2018-03-23T11:08:43.239Z,11.30
2018-03-23T11:11:11.762Z,9.83
2018-03-23T11:13:39.404Z,10.07
2018-03-23T11:16:06.982Z,10.00
2018-03-23T11:18:34.472Z,9.27
2018-03-23T11:21:02.206Z,10.80
2018-03-23T11:23:29.660Z,9.37
2018-03-23T11:25:57.964Z,10.83
2018-03-23T11:28:25.541Z,10.70
2018-03-23T11:30:53.151Z,11.50
2018-03-23T11:33:20.811Z,10.97
2018-03-23T11:35:49.084Z,8.43
2018-03-23T11:38:16.651Z,10.80
2018-03-23T11:40:44.954Z,8.13
2018-03-23T11:43:14.268Z,9.63
2018-03-23T11:45:41.908Z,8.43
2018-03-23T11:48:10.717Z,9.87
2018-03-23T11:50:38.925Z,8.60
2018-03-23T11:53:06.519Z,7.80
2018-03-23T11:55:34.780Z,8.83
2018-03-23T11:58:02.290Z,6.70
2018-03-23T12:00:30.262Z,6.07
2018-03-23T12:02:57.774Z,8.50
2018-03-23T12:05:26.040Z,7.40
2018-03-23T12:07:53.554Z,7.97
2018-03-23T12:10:21.210Z,9.20
2018-03-23T12:12:48.723Z,8.40
2018-03-23T12:15:16.236Z,7.43
2018-03-23T12:17:43.799Z,7.43
2018-03-23T12:20:11.397Z,6.67
2018-03-23T12:22:40.209Z,7.60
2018-03-23T12:25:08.623Z,7.60
2018-03-23T12:27:36.877Z,6.97
2018-03-23T12:30:05.655Z,7.70
2018-03-23T12:32:33.946Z,7.40
2018-03-23T12:35:01.512Z,8.60
2018-03-23T12:37:29.136Z,10.17
2018-03-23T12:39:57.460Z,6.90
2018-03-23T12:42:25.052Z,7.67
2018-03-23T12:44:52.544Z,7.60
2018-03-23T12:47:20.082Z,8.83
2018-03-23T12:49:47.578Z,9.80
2018-03-23T12:52:15.819Z,8.20
2018-03-23T12:54:43.317Z,8.53
2018-03-23T12:57:11.580Z,9.87
2018-03-23T12:59:39.884Z,9.70
2018-03-23T13:02:07.387Z,9.27
2018-03-23T13:04:34.892Z,9.43
2018-03-23T13:07:02.385Z,10.40
2018-03-23T13:09:29.899Z,9.67
2018-03-23T13:11:57.371Z,12.70
2018-03-23T13:14:25.649Z,12.50
2018-03-23T13:16:53.176Z,13.33
2018-03-23T13:19:20.748Z,12.97
2018-03-23T13:21:48.424Z,10.97
2018-03-23T13:24:16.722Z,15.10
2018-03-23T13:26:44.207Z,13.53
2018-03-23T13:29:11.728Z,15.80
2018-03-23T13:31:40.021Z,15.40
2018-03-23T13:34:07.539Z,15.40
2018-03-23T13:36:35.796Z,14.70
2018-03-23T13:39:03.276Z,19.00
2018-03-23T13:41:30.763Z,14.30
2018-03-23T13:43:58.231Z,15.47
2018-03-23T13:46:25.792Z,15.80
2018-03-23T13:48:53.285Z,16.50
2018-03-23T13:51:20.823Z,14.67
2018-03-23T13:53:48.315Z,15.73
2018-03-23T13:56:16.686Z,16.87
2018-03-23T13:58:49.770Z,17.30
2018-03-23T14:01:22.814Z,15.60
2018-03-23T14:03:51.047Z,16.43
2018-03-23T14:06:18.588Z,19.97
2018-03-23T14:08:46.115Z,15.87
2018-03-23T14:11:14.409Z,16.27
2018-03-23T14:13:49.146Z,17.67
2018-03-23T14:16:16.690Z,18.10
2018-03-23T14:18:44.186Z,15.97
2018-03-23T14:21:11.739Z,17.33
2018-03-23T14:23:39.350Z,16.27
2018-03-23T14:26:07.624Z,16.43
2018-03-23T14:28:35.392Z,15.23
2018-03-23T14:31:03.726Z,14.33
2018-03-23T14:33:31.266Z,14.23
2018-03-23T14:35:58.829Z,14.40
2018-03-23T14:38:26.407Z,13.50
2018-03-23T14:40:53.876Z,14.30
2018-03-23T14:43:21.479Z,13.27
2018-03-23T14:45:49.816Z,12.30
2018-03-23T14:48:18.548Z,13.00
2018-03-23T14:50:46.872Z,14.40
2018-03-23T14:53:15.490Z,14.33
2018-03-23T14:55:43.041Z,13.60
2018-03-23T14:58:10.535Z,13.97
2018-03-23T15:00:38.060Z,15.83
2018-03-23T15:03:05.527Z,12.37
2018-03-23T15:05:33.029Z,13.13
2018-03-23T15:08:00.515Z,13.60
2018-03-23T15:10:28.025Z,14.13
2018-03-23T15:12:56.287Z,11.00
2018-03-23T15:15:23.766Z,12.40
2018-03-23T15:17:52.015Z,11.03
2018-03-23T15:20:19.538Z,12.40
2018-03-23T15:22:47.013Z,11.37
2018-03-23T15:25:15.289Z,11.10
2018-03-23T15:27:42.774Z,11.17
2018-03-23T15:30:10.343Z,11.53
2018-03-23T15:32:38.667Z,11.60
2018-03-23T15:35:06.191Z,11.37
2018-03-23T15:37:34.449Z,11.57
2018-03-23T15:40:02.731Z,10.97
2018-03-23T15:42:31.019Z,10.23
2018-03-23T15:44:59.270Z,9.97
2018-03-23T15:47:26.795Z,10.70
2018-03-23T15:49:54.255Z,9.90
2018-03-23T15:52:21.820Z,11.53
2018-03-23T15:54:49.293Z,12.20
2018-03-23T15:57:16.973Z,9.83
2018-03-23T15:59:44.494Z,10.80
2018-03-23T16:02:11.976Z,10.00
2018-03-23T16:04:39.538Z,10.03
2018-03-23T16:07:07.857Z,10.83
2018-03-23T16:09:36.161Z,10.80
2018-03-23T16:12:03.648Z,11.23
2018-03-23T16:14:31.174Z,10.83
2018-03-23T16:16:58.643Z,10.33
2018-03-23T16:19:26.144Z,11.07
2018-03-23T16:21:53.761Z,10.07
2018-03-23T16:24:21.273Z,10.27
2018-03-23T16:26:49.548Z,9.87
2018-03-23T16:29:17.064Z,10.10
2018-03-23T16:31:45.125Z,10.33
2018-03-23T16:34:12.591Z,8.63
2018-03-23T16:36:40.119Z,9.00
2018-03-23T16:39:07.604Z,9.43
2018-03-23T16:41:37.044Z,10.50
2018-03-23T16:44:07.189Z,9.67
2018-03-23T16:46:36.201Z,11.43
2018-03-23T16:49:05.614Z,10.23
2018-03-23T16:51:33.167Z,9.73
2018-03-23T16:54:01.618Z,11.57
2018-03-23T16:56:30.384Z,11.60
2018-03-23T16:58:58.820Z,11.07
2018-03-23T17:01:26.378Z,10.43
2018-03-23T17:03:54.315Z,10.37
2018-03-23T17:06:21.830Z,13.50
2018-03-23T17:08:49.325Z,11.77
2018-03-23T17:11:16.838Z,11.67
2018-03-23T17:13:44.352Z,11.33
2018-03-23T17:16:12.619Z,10.17
2018-03-23T17:18:40.116Z,11.20
2018-03-23T17:21:07.593Z,12.20
2018-03-23T17:23:35.107Z,10.20
2018-03-23T17:26:02.594Z,10.03
2018-03-23T17:28:30.865Z,12.13
2018-03-23T17:30:59.219Z,11.30
2018-03-23T17:33:27.514Z,10.17
2018-03-23T17:35:55.765Z,11.97
2018-03-23T17:38:23.976Z,11.67
2018-03-23T17:41:15.704Z,11.87
2018-03-23T17:43:44.692Z,12.20
2018-03-23T17:46:12.209Z,13.90
2018-03-23T17:48:39.712Z,10.80
2018-03-23T17:51:08.024Z,11.83
2018-03-23T17:53:35.524Z,11.37
2018-03-23T17:56:03.069Z,10.80
2018-03-23T17:58:30.556Z,9.77
2018-03-23T18:00:59.126Z,11.17
2018-03-23T18:03:26.627Z,12.83
2018-03-23T18:05:54.191Z,11.03
2018-03-23T18:08:21.702Z,10.50
2018-03-23T18:10:49.218Z,11.40
2018-03-23T18:13:17.083Z,10.43
2018-03-23T18:15:44.623Z,12.07
2018-03-23T18:18:12.611Z,11.17
2018-03-23T18:20:41.149Z,12.17
2018-03-23T18:23:08.737Z,11.00
2018-03-23T18:25:37.792Z,10.80
2018-03-23T18:28:05.311Z,11.80
2018-03-23T18:30:34.798Z,10.57
2018-03-23T18:33:03.177Z,11.03
2018-03-23T18:35:30.660Z,11.30
2018-03-23T18:37:58.163Z,12.00
2018-03-23T18:40:25.639Z,9.90
2018-03-23T18:42:53.915Z,11.10
2018-03-23T18:45:21.655Z,10.77
2018-03-23T18:47:49.119Z,11.00
2018-03-23T18:50:17.003Z,13.07
2018-03-23T18:52:45.256Z,10.47
2018-03-23T18:55:13.521Z,11.30
2018-03-23T18:57:41.217Z,11.93
2018-03-23T19:00:09.575Z,11.97
2018-03-23T19:02:37.052Z,10.50
2018-03-23T19:05:05.539Z,11.13
2018-03-23T19:07:33.020Z,10.77
2018-03-23T19:10:00.538Z,12.60
2018-03-23T19:12:28.027Z,12.63
2018-03-23T19:14:56.361Z,12.80
2018-03-23T19:17:24.222Z,14.00
2018-03-23T19:19:51.822Z,13.87
2018-03-23T19:22:19.571Z,13.10
2018-03-23T19:24:47.051Z,14.43
2018-03-23T19:27:16.064Z,13.30
2018-03-23T19:29:45.534Z,13.30
2018-03-23T19:32:13.568Z,12.33
2018-03-23T19:34:41.083Z,16.80
2018-03-23T19:37:08.603Z,13.13
2018-03-23T19:39:36.503Z,14.23
2018-03-23T19:42:04.030Z,12.93
2018-03-23T19:44:31.621Z,14.77
2018-03-23T19:46:59.196Z,13.90
2018-03-23T19:49:27.796Z,13.47
2018-03-23T19:51:55.366Z,14.27
2018-03-23T19:54:22.992Z,12.97
2018-03-23T19:56:51.285Z,12.77
2018-03-23T19:59:19.652Z,13.70
2018-03-23T20:01:47.274Z,14.77
2018-03-23T20:04:14.990Z,13.93
2018-03-23T20:06:42.621Z,15.77
2018-03-23T20:09:10.400Z,14.53
2018-03-23T20:11:38.389Z,15.43
2018-03-23T20:14:10.818Z,14.70
2018-03-23T20:16:38.302Z,12.40
2018-03-23T20:19:05.852Z,14.10
2018-03-23T20:21:33.363Z,14.17
2018-03-23T20:24:06.578Z,15.07
2018-03-23T20:26:34.106Z,13.67
2018-03-23T20:29:01.923Z,14.13
2018-03-23T20:31:35.259Z,14.57
2018-03-23T20:34:03.496Z,13.97
2018-03-23T20:36:31.098Z,14.23
2018-03-23T20:38:58.714Z,14.13
2018-03-23T20:41:26.246Z,14.47
2018-03-23T20:43:53.850Z,13.87
2018-03-23T20:46:21.435Z,11.30
2018-03-23T20:48:49.762Z,14.23
2018-03-23T20:51:17.265Z,15.53
2018-03-23T20:53:45.567Z,13.67
2018-03-23T20:56:13.267Z,14.07
2018-03-23T20:58:40.823Z,15.13
2018-03-23T21:01:08.438Z,11.97
2018-03-23T21:03:36.856Z,13.60
2018-03-23T21:06:04.452Z,15.77
2018-03-23T21:08:32.711Z,14.03
2018-03-23T21:11:00.368Z,14.80
2018-03-23T21:13:28.019Z,13.97
2018-03-23T21:15:55.667Z,15.10
2018-03-23T21:18:23.177Z,14.13
2018-03-23T21:20:50.680Z,14.20
2018-03-23T21:23:18.173Z,13.60
2018-03-23T21:25:45.663Z,12.33
2018-03-23T21:28:13.194Z,13.10
2018-03-23T21:30:40.781Z,12.47
2018-03-23T21:33:10.055Z,13.33
2018-03-23T21:35:37.639Z,12.27
2018-03-23T21:38:06.013Z,13.23
2018-03-23T21:40:33.488Z,13.33
2018-03-23T21:43:01.822Z,13.67
2018-03-23T21:45:29.369Z,14.10
2018-03-23T21:47:56.935Z,13.00
2018-03-23T21:50:24.450Z,14.17
2018-03-23T21:52:53.682Z,11.90
2018-03-23T21:55:21.254Z,13.10
2018-03-23T21:57:49.416Z,14.07
2018-03-23T22:00:16.949Z,13.07
2018-03-23T22:02:45.378Z,14.40
2018-03-23T22:05:12.967Z,13.10
2018-03-23T22:07:41.379Z,11.57
2018-03-23T22:10:08.951Z,11.90
2018-03-23T22:12:36.427Z,11.37
2018-03-23T22:15:04.070Z,11.60
2018-03-23T22:17:32.057Z,11.37
2018-03-23T22:19:59.549Z,11.77
2018-03-23T22:22:27.018Z,12.10
2018-03-23T22:24:54.512Z,12.60
2018-03-23T22:27:21.978Z,11.77
2018-03-23T22:29:49.457Z,13.07
2018-03-23T22:32:17.200Z,12.20
2018-03-23T22:34:44.766Z,13.03
2018-03-23T22:37:12.260Z,11.60
2018-03-23T22:39:39.738Z,11.57
2018-03-23T22:42:07.226Z,10.93
2018-03-23T22:44:34.773Z,10.93
2018-03-23T22:47:03.019Z,11.23
2018-03-23T22:49:30.487Z,10.40
2018-03-23T22:51:58.027Z,12.23
2018-03-23T22:54:25.549Z,10.80
2018-03-23T22:56:53.194Z,10.47
2018-03-23T22:59:21.567Z,10.60
2018-03-23T23:01:49.125Z,10.53
2018-03-23T23:04:17.408Z,10.67
2018-03-23T23:06:44.906Z,11.43
2018-03-23T23:09:12.521Z,11.23
2018-03-23T23:11:40.790Z,11.70
2018-03-23T23:14:08.354Z,12.10
2018-03-23T23:16:35.898Z,11.30
2018-03-23T23:19:03.538Z,10.50
2018-03-23T23:21:31.227Z,12.00
2018-03-23T23:23:58.983Z,12.37
2018-03-23T23:26:26.522Z,12.00
2018-03-23T23:28:54.022Z,11.37
2018-03-23T23:31:21.524Z,12.00
2018-03-23T23:33:49.026Z,10.37
2018-03-23T23:36:16.484Z,11.80
2018-03-23T23:38:44.728Z,10.20
2018-03-23T23:41:12.225Z,12.10
2018-03-23T23:43:39.947Z,10.10
2018-03-23T23:46:07.444Z,11.73
2018-03-23T23:48:34.911Z,12.47
2018-03-23T23:51:02.431Z,11.00
2018-03-23T23:53:29.919Z,10.37
2018-03-23T23:55:57.448Z,10.63
2018-03-23T23:58:24.965Z,10.70
